Terminal Aerodrome Forecast
Issued by NWS Albany, NY

Home | Current Version | Previous Version | Text Only | Print | Product List | Glossary On
Versions: 1 2 3 4 5 6 7 8 9 10 11 12 13 14 15 16
000
FTUS41 KALY 291737
TAFALB
TAF
KALB 291737Z 2918/3018 17010KT P6SM VCTS SCT040CB BKN120
      TEMPO 2921/2923 VRB10G25KT 3SM TSRA SCT015 OVC030CB
     FM292300 17008KT P6SM VCTS SCT015 BKN040CB
      TEMPO 3000/3002 VRB10G25KT 3SM TSRA OVC015CB
     FM300300 17006KT P6SM VCSH SCT015 OVC040
     FM300800 17006KT 6SM BR VCSH BKN015 OVC090
     FM301400 20006KT P6SM SCT015 BKN090=

USA.gov is the U.S. government's official web portal to all federal, state and local government web resources and services.